createdAt,value
2018-01-12T00:00:36.700Z,30.23
2018-01-12T00:03:05.020Z,30.10
2018-01-12T00:05:33.377Z,31.37
2018-01-12T00:08:01.712Z,31.13
2018-01-12T00:10:30.029Z,29.80
2018-01-12T00:12:58.364Z,31.50
2018-01-12T00:15:26.692Z,30.33
2018-01-12T00:17:55.032Z,30.37
2018-01-12T00:20:24.121Z,30.10
2018-01-12T00:22:53.232Z,30.70
2018-01-12T00:25:22.330Z,29.63
2018-01-12T00:27:51.495Z,30.20
2018-01-12T00:30:19.815Z,29.90
2018-01-12T00:32:48.914Z,32.20
2018-01-12T00:35:17.248Z,30.80
2018-01-12T00:37:45.620Z,30.00
2018-01-12T00:40:13.940Z,32.60
2018-01-12T00:42:43.037Z,28.80
2018-01-12T00:45:12.156Z,30.60
2018-01-12T00:47:40.478Z,31.03
2018-01-12T00:50:08.819Z,30.77
2018-01-12T00:52:37.120Z,30.60
2018-01-12T00:55:05.451Z,29.93
2018-01-12T00:57:34.616Z,29.23
2018-01-12T01:00:03.036Z,32.30
2018-01-12T01:02:31.348Z,28.83
2018-01-12T01:04:59.709Z,29.37
2018-01-12T01:07:28.020Z,28.53
2018-01-12T01:09:56.352Z,28.47
2018-01-12T01:12:25.463Z,29.20
2018-01-12T01:14:53.781Z,27.50
2018-01-12T01:17:22.118Z,27.87
2018-01-12T01:19:50.457Z,26.13
2018-01-12T01:22:18.820Z,28.83
2018-01-12T01:24:47.143Z,27.90
2018-01-12T01:27:15.506Z,27.97
2018-01-12T01:29:44.598Z,28.17
2018-01-12T01:32:13.102Z,30.20
2018-01-12T01:34:41.432Z,30.07
2018-01-12T01:37:09.766Z,28.13
2018-01-12T01:39:38.127Z,27.07
2018-01-12T01:42:07.214Z,28.60
2018-01-12T01:44:36.328Z,27.33
2018-01-12T01:47:05.443Z,26.77
2018-01-12T01:49:33.872Z,26.90
2018-01-12T01:52:02.185Z,26.50
2018-01-12T01:54:30.525Z,25.83
2018-01-12T01:56:58.852Z,27.20
2018-01-12T01:59:27.186Z,24.80
2018-01-12T02:01:55.512Z,25.97
2018-01-12T02:04:23.861Z,25.67
2018-01-12T02:06:52.947Z,25.73
2018-01-12T02:09:21.269Z,26.00
2018-01-12T02:11:49.606Z,26.37
2018-01-12T02:14:17.920Z,26.20
2018-01-12T02:16:46.261Z,25.73
2018-01-12T02:19:15.363Z,25.40
2018-01-12T02:21:43.709Z,27.70
2018-01-12T02:24:12.036Z,27.10
2018-01-12T02:26:40.371Z,26.77
2018-01-12T02:29:08.680Z,26.43
2018-01-12T02:31:37.029Z,25.30
2018-01-12T02:34:05.366Z,27.30
2018-01-12T02:36:33.906Z,27.13
2018-01-12T02:39:02.294Z,28.97
2018-01-12T02:41:30.620Z,26.77
2018-01-12T02:43:59.736Z,30.57
2018-01-12T02:46:28.049Z,27.97
2018-01-12T02:48:56.396Z,27.70
2018-01-12T02:51:24.725Z,26.77
2018-01-12T02:53:53.832Z,26.97
2018-01-12T02:56:22.161Z,27.17
2018-01-12T02:58:50.509Z,27.87
2018-01-12T03:01:18.834Z,27.30
2018-01-12T03:03:47.172Z,30.07
2018-01-12T03:06:15.484Z,30.03
2018-01-12T03:08:43.824Z,29.67
2018-01-12T03:11:12.140Z,30.07
2018-01-12T03:13:40.493Z,28.67
2018-01-12T03:16:08.809Z,28.43
2018-01-12T03:18:37.896Z,29.50
2018-01-12T03:21:06.240Z,27.40
2018-01-12T03:23:34.557Z,29.60
2018-01-12T03:26:02.923Z,29.70
2018-01-12T03:28:31.269Z,27.90
2018-01-12T03:30:59.724Z,30.27
2018-01-12T03:33:28.926Z,31.60
2018-01-12T03:35:58.030Z,32.90
2018-01-12T03:38:26.766Z,32.00
2018-01-12T03:40:55.111Z,34.13
2018-01-12T03:43:23.441Z,31.47
2018-01-12T03:45:52.530Z,30.77
2018-01-12T03:48:20.876Z,32.03
2018-01-12T03:50:49.206Z,35.83
2018-01-12T03:53:18.337Z,33.50
2018-01-12T03:55:47.590Z,35.17
2018-01-12T03:58:15.956Z,37.73
2018-01-12T04:00:44.263Z,36.50
2018-01-12T04:03:12.684Z,37.90
2018-01-12T04:05:41.748Z,36.03
2018-01-12T04:08:10.086Z,38.90
2018-01-12T04:10:38.414Z,40.43
2018-01-12T04:13:06.760Z,38.30
2018-01-12T04:15:35.119Z,37.70
2018-01-12T04:18:05.079Z,37.87
2018-01-12T04:20:34.180Z,40.50
2018-01-12T04:23:02.499Z,43.10
2018-01-12T04:25:30.836Z,37.07
2018-01-12T04:27:59.912Z,37.93
2018-01-12T04:30:28.246Z,40.03
2018-01-12T04:32:56.569Z,39.93
2018-01-12T04:35:24.918Z,37.10
2018-01-12T04:37:53.235Z,37.67
2018-01-12T04:40:22.336Z,40.53
2018-01-12T04:42:51.421Z,39.57
2018-01-12T04:45:19.789Z,36.40
2018-01-12T04:47:48.099Z,36.57
2018-01-12T04:50:17.185Z,37.33
2018-01-12T04:52:46.283Z,36.87
2018-01-12T04:55:15.399Z,35.67
2018-01-12T04:57:43.723Z,36.27
2018-01-12T05:00:12.036Z,34.80
2018-01-12T05:02:40.403Z,36.10
2018-01-12T05:05:08.722Z,35.10
2018-01-12T05:07:37.068Z,37.60
2018-01-12T05:10:05.399Z,40.50
2018-01-12T05:12:33.757Z,38.70
2018-01-12T05:15:02.082Z,39.90
2018-01-12T05:17:30.442Z,43.40
2018-01-12T05:19:58.766Z,39.03
2018-01-12T05:22:27.875Z,41.80
2018-01-12T05:24:56.962Z,44.47
2018-01-12T05:27:26.057Z,39.20
2018-01-12T05:29:55.149Z,39.50
2018-01-12T05:32:24.276Z,40.10
2018-01-12T05:34:52.592Z,40.00
2018-01-12T05:37:20.899Z,37.50
2018-01-12T05:39:50.030Z,38.23
2018-01-12T05:42:18.345Z,37.93
2018-01-12T05:44:46.706Z,38.17
2018-01-12T05:47:15.018Z,38.40
2018-01-12T05:49:43.355Z,36.20
2018-01-12T05:52:11.659Z,34.97
2018-01-12T05:54:39.994Z,36.47
2018-01-12T05:57:08.304Z,35.53
2018-01-12T05:59:36.652Z,35.17
2018-01-12T06:02:16.635Z,39.43
2018-01-12T06:04:56.800Z,38.30
2018-01-12T06:07:25.121Z,38.00
2018-01-12T06:09:54.208Z,35.90
2018-01-12T06:12:23.316Z,35.93
2018-01-12T06:14:52.395Z,36.97
2018-01-12T06:17:20.736Z,35.77
2018-01-12T06:19:49.068Z,39.97
2018-01-12T06:22:18.163Z,35.77
2018-01-12T06:24:47.252Z,36.47
2018-01-12T06:27:16.347Z,37.93
2018-01-12T06:29:45.424Z,34.07
2018-01-12T06:32:13.747Z,35.60
2018-01-12T06:34:42.056Z,33.70
2018-01-12T06:37:10.412Z,35.03
2018-01-12T06:39:38.743Z,34.23
2018-01-12T06:42:07.058Z,33.07
2018-01-12T06:44:35.400Z,33.63
2018-01-12T06:47:03.726Z,34.07
2018-01-12T06:49:32.075Z,33.50
2018-01-12T06:52:01.147Z,32.73
2018-01-12T06:54:29.476Z,32.77
2018-01-12T06:56:57.796Z,36.00
2018-01-12T06:59:26.169Z,34.20
2018-01-12T07:01:54.477Z,32.13
2018-01-12T07:04:22.814Z,31.90
2018-01-12T07:06:51.126Z,33.80
2018-01-12T07:09:19.458Z,31.70
2018-01-12T07:11:47.775Z,31.57
2018-01-12T07:14:16.106Z,29.30
2018-01-12T07:16:44.425Z,30.40
2018-01-12T07:19:12.740Z,32.20
2018-01-12T07:21:53.809Z,30.97
2018-01-12T07:24:22.888Z,31.83
2018-01-12T07:26:51.218Z,31.13
2018-01-12T07:29:19.525Z,30.87
2018-01-12T07:31:47.900Z,30.80
2018-01-12T07:34:16.247Z,29.23
2018-01-12T07:36:44.585Z,30.30
2018-01-12T07:39:12.946Z,29.20
2018-01-12T07:41:41.272Z,30.80
2018-01-12T07:44:09.609Z,28.83
2018-01-12T07:46:37.940Z,29.70
2018-01-12T07:49:06.250Z,28.30
2018-01-12T07:51:34.599Z,27.93
2018-01-12T07:54:02.899Z,28.20
2018-01-12T07:56:31.204Z,25.73
2018-01-12T07:58:59.598Z,27.27
2018-01-12T08:01:33.715Z,26.90
2018-01-12T08:04:02.074Z,29.03
2018-01-12T08:06:30.388Z,27.67
2018-01-12T08:08:59.484Z,24.87
2018-01-12T08:11:28.548Z,25.63
2018-01-12T08:13:56.892Z,25.53
2018-01-12T08:16:25.220Z,26.07
2018-01-12T08:18:53.557Z,25.93
2018-01-12T08:21:21.875Z,24.63
2018-01-12T08:23:50.226Z,24.20
2018-01-12T08:26:18.545Z,26.07
2018-01-12T08:28:46.906Z,24.83
2018-01-12T08:31:15.224Z,25.40
2018-01-12T08:33:43.530Z,27.17
2018-01-12T08:36:11.847Z,26.20
2018-01-12T08:38:40.160Z,25.70
2018-01-12T08:41:08.495Z,21.87
2018-01-12T08:43:36.804Z,22.10
2018-01-12T08:46:05.914Z,21.43
2018-01-12T08:48:34.232Z,24.20
2018-01-12T08:51:02.564Z,23.90
2018-01-12T08:53:30.871Z,24.03
2018-01-12T08:55:59.208Z,22.30
2018-01-12T08:58:29.010Z,23.60
2018-01-12T09:00:57.352Z,23.83
2018-01-12T09:03:25.674Z,23.43
2018-01-12T09:05:54.756Z,21.37
2018-01-12T09:08:23.117Z,23.60
2018-01-12T09:10:51.428Z,22.70
2018-01-12T09:16:27.935Z,23.27
2018-01-12T09:19:08.024Z,24.40
2018-01-12T09:21:37.169Z,21.67
2018-01-12T09:24:18.079Z,23.10
2018-01-12T09:26:46.383Z,24.27
2018-01-12T09:29:14.727Z,23.27
2018-01-12T09:31:44.000Z,22.63
2018-01-12T09:34:24.841Z,22.80
2018-01-12T09:36:53.167Z,22.77
2018-01-12T09:39:33.283Z,24.20
2018-01-12T09:42:01.614Z,25.23
2018-01-12T09:44:29.932Z,24.30
2018-01-12T09:47:09.983Z,23.53
2018-01-12T09:49:47.068Z,24.43
2018-01-12T09:52:15.399Z,24.70
2018-01-12T09:54:43.736Z,22.70
2018-01-12T09:57:12.054Z,24.57
2018-01-12T09:59:44.223Z,22.37
2018-01-12T10:02:12.564Z,24.00
2018-01-12T10:04:40.894Z,24.07
2018-01-12T10:07:17.116Z,25.63
2018-01-12T10:09:48.214Z,25.00
2018-01-12T10:12:16.553Z,28.07
2018-01-12T10:14:45.649Z,24.90
2018-01-12T10:17:15.481Z,24.97
2018-01-12T10:22:59.429Z,26.00
2018-01-12T10:25:28.530Z,29.33
2018-01-12T10:27:57.606Z,26.90
2018-01-12T10:33:58.911Z,26.70
2018-01-12T10:37:01.746Z,26.50
2018-01-12T10:39:33.692Z,24.97
2018-01-12T10:42:08.299Z,27.53
2018-01-12T10:44:36.637Z,28.17
2018-01-12T10:47:22.803Z,25.93
2018-01-12T10:49:57.110Z,26.13
2018-01-12T10:52:31.957Z,28.97
2018-01-12T10:55:00.290Z,26.40
2018-01-12T10:57:28.624Z,27.40
2018-01-12T10:59:56.946Z,27.77
2018-01-12T11:02:25.275Z,28.20
2018-01-12T11:04:53.607Z,27.30
2018-01-12T11:07:21.936Z,28.00
2018-01-12T11:09:50.255Z,27.57
2018-01-12T11:12:20.361Z,28.33
2018-01-12T11:14:48.676Z,28.80
2018-01-12T11:17:16.983Z,26.70
2018-01-12T11:19:45.371Z,27.07
2018-01-12T11:22:13.679Z,26.90
2018-01-12T11:24:42.765Z,27.80
2018-01-12T11:27:11.063Z,27.43
2018-01-12T11:29:39.390Z,28.67
2018-01-12T11:32:07.710Z,28.17
2018-01-12T11:34:36.821Z,27.30
2018-01-12T11:37:05.909Z,27.90
2018-01-12T11:39:35.022Z,26.73
2018-01-12T11:42:03.361Z,28.80
2018-01-12T11:44:31.684Z,27.90
2018-01-12T11:47:00.004Z,27.30
2018-01-12T11:49:28.347Z,29.13
2018-01-12T11:51:56.665Z,26.83
2018-01-12T11:54:25.020Z,28.43
2018-01-12T11:56:53.353Z,26.57
2018-01-12T11:59:22.425Z,27.47
2018-01-12T12:01:50.755Z,25.80
2018-01-12T12:04:19.067Z,26.70
2018-01-12T12:06:47.403Z,28.63
2018-01-12T12:09:15.715Z,23.73
2018-01-12T12:11:44.048Z,29.30
2018-01-12T12:14:13.136Z,27.70
2018-01-12T12:16:42.237Z,29.67
2018-01-12T12:19:11.334Z,29.67
2018-01-12T12:21:40.399Z,29.53
2018-01-12T12:24:08.740Z,30.47
2018-01-12T12:26:37.055Z,30.67
2018-01-12T12:29:05.395Z,27.93
2018-01-12T12:31:33.700Z,29.87
2018-01-12T12:34:02.023Z,31.60
2018-01-12T12:36:30.371Z,30.17
2018-01-12T12:38:58.698Z,29.50
2018-01-12T12:41:27.039Z,28.70
2018-01-12T12:43:55.347Z,30.60
2018-01-12T12:46:23.739Z,29.10
2018-01-12T12:48:52.051Z,30.17
2018-01-12T12:51:20.384Z,30.47
2018-01-12T12:53:48.696Z,29.87
2018-01-12T12:56:17.037Z,28.37
2018-01-12T12:58:46.109Z,32.57
2018-01-12T13:01:14.448Z,30.10
2018-01-12T13:03:42.744Z,32.40
2018-01-12T13:06:11.073Z,32.40
2018-01-12T13:08:39.400Z,32.03
2018-01-12T13:11:07.726Z,32.53
2018-01-12T13:13:36.056Z,33.83
2018-01-12T13:16:04.368Z,32.83
2018-01-12T13:18:33.463Z,31.30
2018-01-12T13:21:01.780Z,32.07
2018-01-12T13:23:30.116Z,34.93
2018-01-12T13:25:59.216Z,32.07
2018-01-12T13:28:29.174Z,34.80
2018-01-12T13:30:57.495Z,35.07
2018-01-12T13:33:26.002Z,32.67
2018-01-12T13:35:55.083Z,34.80
2018-01-12T13:38:23.451Z,35.63
2018-01-12T13:40:51.743Z,34.60
2018-01-12T13:43:20.064Z,35.93
2018-01-12T13:45:48.404Z,36.20
2018-01-12T13:48:16.744Z,34.70
2018-01-12T13:50:45.081Z,37.40
2018-01-12T13:53:13.401Z,36.60
2018-01-12T13:55:41.739Z,40.73
2018-01-12T13:58:10.051Z,38.00
2018-01-12T14:00:38.403Z,38.97
2018-01-12T14:03:06.717Z,37.30
2018-01-12T14:05:35.037Z,35.50
2018-01-12T14:08:04.152Z,37.17
2018-01-12T14:10:32.467Z,41.07
2018-01-12T14:13:00.799Z,32.37
2018-01-12T14:15:29.110Z,34.70
2018-01-12T14:17:57.437Z,33.73
2018-01-12T14:20:26.528Z,34.60
2018-01-12T14:22:54.856Z,33.30
2018-01-12T14:25:23.167Z,34.60
2018-01-12T14:27:51.519Z,30.13
2018-01-12T14:30:19.833Z,31.70
2018-01-12T14:32:48.186Z,32.47
2018-01-12T14:35:16.502Z,31.10
2018-01-12T14:37:44.812Z,32.00
2018-01-12T14:40:13.136Z,30.17
2018-01-12T14:42:41.444Z,33.80
2018-01-12T14:45:10.539Z,31.70
2018-01-12T14:47:39.622Z,32.03
2018-01-12T14:50:07.944Z,31.50
2018-01-12T14:52:36.242Z,30.77
2018-01-12T14:55:04.568Z,31.47
2018-01-12T14:57:33.654Z,30.87
2018-01-12T15:00:01.992Z,33.23
2018-01-12T15:02:30.318Z,33.60
2018-01-12T15:04:58.679Z,28.57
2018-01-12T15:07:26.979Z,29.23
2018-01-12T15:09:55.300Z,27.40
2018-01-12T15:12:23.628Z,30.77
2018-01-12T15:14:51.930Z,29.70
2018-01-12T15:17:20.259Z,32.07
2018-01-12T15:19:48.563Z,29.07
2018-01-12T15:22:16.887Z,31.00
2018-01-12T15:24:45.199Z,31.77
2018-01-12T15:27:13.531Z,32.27
2018-01-12T15:29:41.836Z,29.17
2018-01-12T15:32:10.175Z,28.83
2018-01-12T15:34:39.241Z,27.80
2018-01-12T15:37:07.568Z,28.67
2018-01-12T15:39:35.895Z,29.37
2018-01-12T15:42:04.205Z,29.27
2018-01-12T15:44:33.317Z,29.47
2018-01-12T15:47:01.636Z,30.47
2018-01-12T15:49:29.958Z,27.07
2018-01-12T15:51:59.038Z,28.30
2018-01-12T15:54:27.372Z,26.50
2018-01-12T15:56:55.671Z,28.67
2018-01-12T15:59:23.997Z,28.70
2018-01-12T16:01:52.313Z,30.10
2018-01-12T16:04:20.635Z,27.30
2018-01-12T16:06:49.730Z,28.00
2018-01-12T16:09:18.812Z,29.40
2018-01-12T16:11:47.138Z,28.27
2018-01-12T16:14:15.458Z,28.40
2018-01-12T16:16:43.780Z,28.60
2018-01-12T16:19:12.867Z,25.80
2018-01-12T16:21:41.968Z,29.53
2018-01-12T16:24:11.045Z,28.63
2018-01-12T16:26:40.140Z,29.47
2018-01-12T16:29:08.440Z,29.50
2018-01-12T16:31:37.552Z,27.30
2018-01-12T16:34:05.850Z,28.67
2018-01-12T16:36:34.174Z,27.37
2018-01-12T16:39:02.616Z,29.80
2018-01-12T16:41:30.959Z,27.37
2018-01-12T16:43:59.280Z,30.83
2018-01-12T16:46:27.613Z,28.63
2018-01-12T16:48:56.713Z,29.00
2018-01-12T16:51:25.019Z,27.60
2018-01-12T16:53:53.344Z,30.50
2018-01-12T16:56:21.645Z,28.07
2018-01-12T16:58:49.977Z,28.33
2018-01-12T17:01:18.285Z,33.30
2018-01-12T17:03:47.388Z,28.57
2018-01-12T17:06:16.461Z,30.17
2018-01-12T17:08:44.801Z,31.00
2018-01-12T17:11:13.110Z,28.80
2018-01-12T17:13:41.434Z,27.00
2018-01-12T17:16:09.738Z,24.73
2018-01-12T17:18:38.101Z,29.17
2018-01-12T17:21:06.400Z,28.77
2018-01-12T17:23:34.736Z,28.93
2018-01-12T17:26:03.812Z,28.73
2018-01-12T17:28:32.150Z,27.40
2018-01-12T17:31:00.460Z,31.30
2018-01-12T17:33:28.794Z,30.90
2018-01-12T17:35:57.109Z,28.57
2018-01-12T17:38:25.436Z,25.33
2018-01-12T17:40:53.776Z,28.67
2018-01-12T17:43:22.082Z,27.27
2018-01-12T17:45:51.184Z,26.43
2018-01-12T17:48:20.260Z,27.60
2018-01-12T17:50:49.358Z,26.27
2018-01-12T17:53:17.684Z,29.53
2018-01-12T17:55:46.012Z,34.07
2018-01-12T17:58:14.308Z,33.97
2018-01-12T18:00:43.408Z,33.13
2018-01-12T18:03:11.722Z,31.50
2018-01-12T18:05:40.030Z,28.13
2018-01-12T18:08:08.348Z,28.57
2018-01-12T18:10:36.660Z,28.93
2018-01-12T18:13:04.998Z,29.87
2018-01-12T18:15:34.077Z,29.50
2018-01-12T18:18:02.403Z,27.70
2018-01-12T18:20:30.715Z,28.47
2018-01-12T18:22:59.074Z,27.00
2018-01-12T18:25:27.375Z,27.17
2018-01-12T18:27:55.703Z,27.37
2018-01-12T18:30:24.016Z,29.13
2018-01-12T18:32:52.344Z,27.20
2018-01-12T18:35:20.643Z,24.97
2018-01-12T18:37:48.980Z,27.37
2018-01-12T18:40:17.286Z,28.40
2018-01-12T18:42:45.621Z,32.13
2018-01-12T18:45:13.918Z,30.57
2018-01-12T18:47:43.016Z,28.13
2018-01-12T18:50:12.084Z,26.73
2018-01-12T18:52:40.419Z,27.27
2018-01-12T18:55:08.732Z,26.17
2018-01-12T18:57:37.036Z,27.00
2018-01-12T19:00:05.437Z,26.30
2018-01-12T19:02:34.523Z,28.50
2018-01-12T19:05:02.865Z,26.87
2018-01-12T19:07:31.173Z,27.10
2018-01-12T19:10:00.278Z,29.50
2018-01-12T19:12:29.348Z,29.50
2018-01-12T19:14:57.684Z,27.67
2018-01-12T19:17:25.989Z,25.57
2018-01-12T19:19:54.319Z,26.83
2018-01-12T19:22:23.419Z,26.60
2018-01-12T19:24:52.500Z,27.60
2018-01-12T19:27:20.818Z,26.40
2018-01-12T19:29:49.194Z,25.17
2018-01-12T19:32:17.505Z,28.00
2018-01-12T19:34:45.844Z,28.50
2018-01-12T19:37:14.164Z,28.00
2018-01-12T19:39:42.472Z,26.93
2018-01-12T19:42:11.563Z,25.63
2018-01-12T19:44:39.867Z,25.50
2018-01-12T19:47:08.199Z,25.27
2018-01-12T19:49:36.505Z,27.10
2018-01-12T19:52:05.594Z,26.60
2018-01-12T19:54:34.667Z,25.00
2018-01-12T19:57:03.008Z,24.17
2018-01-12T19:59:31.341Z,25.33
2018-01-12T20:01:59.655Z,25.33
2018-01-12T20:04:27.994Z,25.87
2018-01-12T20:06:56.295Z,25.27
2018-01-12T20:09:25.401Z,27.20
2018-01-12T20:11:53.708Z,26.00
2018-01-12T20:14:22.038Z,25.23
2018-01-12T20:16:51.115Z,24.60
2018-01-12T20:19:19.450Z,25.60
2018-01-12T20:21:47.746Z,22.70
2018-01-12T20:24:16.113Z,24.00
2018-01-12T20:26:44.454Z,23.37
2018-01-12T20:29:13.551Z,23.73
2018-01-12T20:31:42.677Z,23.63
2018-01-12T20:34:11.026Z,22.13
2018-01-12T20:36:40.120Z,22.07
2018-01-12T20:39:09.204Z,21.60
2018-01-12T20:41:37.545Z,22.80
2018-01-12T20:44:05.862Z,21.73
2018-01-12T20:46:34.197Z,22.00
2018-01-12T20:49:02.504Z,21.47
2018-01-12T20:51:30.831Z,17.30
2018-01-12T20:53:59.186Z,21.80
2018-01-12T20:56:27.567Z,20.97
2018-01-12T20:58:56.634Z,20.87
2018-01-12T21:01:24.973Z,19.03
2018-01-12T21:03:53.348Z,21.03
2018-01-12T21:06:21.701Z,24.03
2018-01-12T21:08:50.837Z,17.93
2018-01-12T21:11:19.186Z,22.20
2018-01-12T21:13:47.506Z,23.30
2018-01-12T21:16:15.821Z,20.67
2018-01-12T21:18:44.141Z,21.07
2018-01-12T21:21:12.450Z,22.97
2018-01-12T21:23:40.826Z,25.90
2018-01-12T21:26:09.143Z,25.30
2018-01-12T21:28:37.678Z,25.43
2018-01-12T21:31:05.984Z,22.57
2018-01-12T21:33:34.333Z,21.10
2018-01-12T21:36:02.702Z,23.90
2018-01-12T21:38:31.013Z,20.83
2018-01-12T21:40:59.379Z,25.90
2018-01-12T21:43:27.721Z,22.90
2018-01-12T21:45:56.050Z,27.83
2018-01-12T21:48:24.367Z,17.67
2018-01-12T21:50:53.468Z,29.50
2018-01-12T21:53:22.604Z,20.90
2018-01-12T21:55:50.963Z,25.67
2018-01-12T21:58:19.248Z,24.07
2018-01-12T22:00:47.621Z,23.17
2018-01-12T22:03:15.971Z,28.27
2018-01-12T22:05:45.061Z,19.77
2018-01-12T22:08:14.176Z,25.33
2018-01-12T22:10:43.269Z,23.60
2018-01-12T22:13:12.364Z,20.20
2018-01-12T22:15:41.499Z,20.20
2018-01-12T22:18:09.829Z,23.90
2018-01-12T22:20:38.947Z,28.43
2018-01-12T22:23:08.072Z,24.47
2018-01-12T22:25:36.427Z,28.13
2018-01-12T22:28:04.769Z,26.57
2018-01-12T22:30:33.076Z,26.27
2018-01-12T22:33:02.176Z,25.50
2018-01-12T22:35:30.497Z,24.10
2018-01-12T22:37:58.806Z,27.63
2018-01-12T22:40:27.120Z,26.53
2018-01-12T22:42:55.463Z,27.97
2018-01-12T22:45:23.773Z,26.97
2018-01-12T22:47:52.138Z,26.77
2018-01-12T22:50:20.456Z,28.17
2018-01-12T22:52:48.822Z,27.50
2018-01-12T22:55:17.143Z,29.77
2018-01-12T22:57:45.485Z,26.83
2018-01-12T23:00:13.852Z,29.80
2018-01-12T23:02:42.178Z,28.07
2018-01-12T23:05:10.524Z,29.30
2018-01-12T23:07:38.878Z,28.83
2018-01-12T23:10:07.963Z,29.03
2018-01-12T23:12:36.307Z,31.37
2018-01-12T23:15:04.651Z,29.43
2018-01-12T23:17:32.975Z,29.67
2018-01-12T23:20:01.269Z,29.10
2018-01-12T23:22:30.390Z,29.93
2018-01-12T23:24:58.716Z,33.00
2018-01-12T23:27:27.058Z,29.17
2018-01-12T23:29:55.370Z,33.30
2018-01-12T23:32:23.701Z,30.53
2018-01-12T23:34:52.015Z,32.10
2018-01-12T23:37:20.368Z,32.70
2018-01-12T23:39:48.682Z,29.90
2018-01-12T23:42:17.016Z,28.43
2018-01-12T23:44:45.333Z,31.80
2018-01-12T23:47:13.829Z,31.70
2018-01-12T23:49:42.188Z,30.23
2018-01-12T23:52:10.511Z,29.90
2018-01-12T23:54:38.886Z,28.73
2018-01-12T23:57:07.186Z,30.10
2018-01-12T23:59:35.503Z,29.83
